Time;durP1;ratioP1;P1;durP2;ratioP2;P2;SDS_P1;SDS_P2;PMS_P1;PMS_P2;Temp;Humidity;BMP_temperature;BMP_pressure;BME280_temperature;BME280_humidity;BME280_pressure;Samples;Min_cycle;Max_cycle;Signal;HPM_P1;HPM_P2
2022/10/07 00:01:30;;;;;;;6.27;1.93;;;9.20;99.90;;;;;;5093632;28;20206;-54
2022/10/07 00:03:56;;;;;;;9.27;2.07;;;9.20;99.90;;;;;;5093815;28;20224;-55
2022/10/07 00:06:23;;;;;;;10.87;2.87;;;9.20;99.90;;;;;;5093541;28;20217;-53
2022/10/07 00:08:53;;;;;;;13.00;2.30;;;9.20;99.90;;;;;;5093577;28;20637;-51
2022/10/07 00:11:23;;;;;;;8.63;2.30;;;9.30;99.90;;;;;;5093561;28;20214;-52
2022/10/07 00:13:52;;;;;;;6.50;2.13;;;9.30;99.90;;;;;;5093710;28;20216;-50
2022/10/07 00:16:23;;;;;;;6.80;1.93;;;9.30;99.90;;;;;;5093269;28;20213;-56
2022/10/07 00:18:50;;;;;;;8.67;2.50;;;9.30;99.90;;;;;;5093161;28;20222;-53
2022/10/07 00:21:18;;;;;;;7.47;2.13;;;9.20;99.90;;;;;;5093241;28;20217;-53
2022/10/07 00:23:47;;;;;;;5.63;2.03;;;9.30;99.90;;;;;;5093413;28;20272;-48
2022/10/07 00:26:16;;;;;;;9.10;2.40;;;9.30;99.90;;;;;;5093131;28;20219;-50
2022/10/07 00:28:44;;;;;;;8.60;2.17;;;9.30;99.90;;;;;;5093054;28;20593;-47
2022/10/07 00:31:14;;;;;;;6.33;2.70;;;9.30;99.90;;;;;;5093397;28;20209;-54
2022/10/07 00:33:41;;;;;;;9.00;1.73;;;9.30;99.90;;;;;;5093096;28;20263;-51
2022/10/07 00:36:10;;;;;;;8.07;2.07;;;9.30;99.90;;;;;;5092784;28;20211;-48
2022/10/07 00:38:37;;;;;;;9.87;1.97;;;9.30;99.90;;;;;;5092959;28;20234;-52
2022/10/07 00:41:04;;;;;;;7.00;2.20;;;9.30;99.90;;;;;;5094003;28;20306;-53
2022/10/07 00:43:33;;;;;;;6.07;2.40;;;9.40;99.90;;;;;;5094394;28;20603;-55
2022/10/07 00:46:07;;;;;;;8.67;2.30;;;9.40;99.90;;;;;;5093738;28;20206;-53
2022/10/07 00:48:36;;;;;;;10.70;2.50;;;9.40;99.90;;;;;;5093046;28;20257;-54
2022/10/07 00:51:03;;;;;;;8.97;2.43;;;9.40;99.90;;;;;;5092935;28;20204;-55
2022/10/07 00:53:33;;;;;;;4.37;2.00;;;9.40;99.90;;;;;;5092908;28;20238;-50
2022/10/07 00:56:01;;;;;;;9.50;2.30;;;9.40;99.90;;;;;;5092600;28;20211;-53
2022/10/07 00:58:30;;;;;;;8.20;2.77;;;9.40;99.90;;;;;;5092769;28;20235;-51
2022/10/07 01:00:57;;;;;;;8.03;2.57;;;9.40;99.90;;;;;;5092455;28;20201;-51
2022/10/07 01:03:25;;;;;;;7.30;2.53;;;9.40;99.90;;;;;;5092419;28;20697;-52
2022/10/07 01:05:52;;;;;;;9.27;2.57;;;9.40;99.90;;;;;;5091669;28;20205;-53
2022/10/07 01:08:20;;;;;;;12.53;2.57;;;9.40;99.90;;;;;;5092254;28;20275;-50
2022/10/07 01:11:01;;;;;;;9.23;3.03;;;9.40;99.90;;;;;;5092298;28;20205;-48
2022/10/07 01:13:34;;;;;;;8.00;2.53;;;9.40;99.90;;;;;;5092428;28;20205;-50
2022/10/07 01:16:07;;;;;;;10.23;2.97;;;9.40;99.90;;;;;;5092162;28;20207;-51
2022/10/07 01:18:45;;;;;;;8.63;3.10;;;9.50;99.90;;;;;;5091845;28;20270;-52
2022/10/07 01:21:22;;;;;;;10.57;2.90;;;9.50;99.90;;;;;;5092169;28;20255;-54
2022/10/07 01:24:00;;;;;;;7.70;2.63;;;9.50;99.90;;;;;;5091967;28;20221;-51
2022/10/07 01:26:51;;;;;;;7.07;2.80;;;9.50;99.90;;;;;;5091777;28;20216;-52
2022/10/07 01:29:22;;;;;;;6.70;2.60;;;9.40;99.90;;;;;;5092476;28;20333;-47
2022/10/07 01:31:55;;;;;;;9.63;3.27;;;9.40;99.90;;;;;;5092187;28;20666;-52
2022/10/07 01:34:25;;;;;;;6.27;3.03;;;9.40;99.90;;;;;;5092139;28;20208;-52
2022/10/07 01:36:56;;;;;;;8.87;3.53;;;9.30;99.90;;;;;;5091991;28;20240;-50
2022/10/07 01:39:27;;;;;;;9.83;2.60;;;9.30;99.90;;;;;;5091545;28;20226;-53
2022/10/07 01:41:56;;;;;;;7.03;3.10;;;9.30;99.90;;;;;;5092037;28;20568;-48
2022/10/07 01:44:26;;;;;;;10.40;3.47;;;9.20;99.90;;;;;;5091818;28;20232;-51
2022/10/07 01:46:52;;;;;;;9.10;4.60;;;9.20;99.90;;;;;;5091901;28;20215;-52
2022/10/07 01:49:19;;;;;;;6.07;2.27;;;9.20;99.90;;;;;;5091834;28;20632;-51
2022/10/07 01:52:03;;;;;;;10.23;2.90;;;9.20;99.90;;;;;;5091854;28;20283;-52
2022/10/07 01:54:41;;;;;;;6.07;3.03;;;9.10;99.90;;;;;;5091865;28;20583;-47
2022/10/07 01:57:17;;;;;;;8.97;3.27;;;9.10;99.90;;;;;;5091769;28;20677;-49
2022/10/07 02:00:07;;;;;;;7.07;3.27;;;9.10;99.90;;;;;;5091862;28;20566;-50
2022/10/07 02:02:47;;;;;;;7.67;3.50;;;9.10;99.90;;;;;;5091758;28;20218;-52
2022/10/07 02:05:22;;;;;;;6.30;2.70;;;9.00;99.90;;;;;;5091887;28;20235;-52
2022/10/07 02:08:03;;;;;;;7.00;3.03;;;9.00;99.90;;;;;;5091561;28;20269;-49
2022/10/07 02:10:39;;;;;;;7.70;2.80;;;9.00;99.90;;;;;;5091604;28;20200;-50
2022/10/07 02:13:11;;;;;;;10.63;3.03;;;9.00;99.90;;;;;;5091909;28;20212;-50
2022/10/07 02:15:42;;;;;;;10.57;3.50;;;9.00;99.90;;;;;;5091810;28;20251;-50
2022/10/07 02:18:14;;;;;;;8.27;3.20;;;9.00;99.90;;;;;;5095404;28;20271;-55
2022/10/07 02:20:44;;;;;;;9.93;2.87;;;9.00;99.90;;;;;;5095653;28;20211;-53
2022/10/07 02:23:13;;;;;;;7.50;2.73;;;9.00;99.90;;;;;;5095511;28;20253;-55
2022/10/07 02:25:45;;;;;;;8.53;2.80;;;9.00;99.90;;;;;;5095410;28;20283;-53
2022/10/07 02:28:15;;;;;;;11.07;2.70;;;8.90;99.90;;;;;;5095006;28;20229;-52
2022/10/07 02:30:45;;;;;;;7.00;2.73;;;8.90;99.90;;;;;;5095386;28;20208;-48
2022/10/07 02:33:13;;;;;;;5.47;2.60;;;8.90;99.90;;;;;;5095451;28;20217;-50
2022/10/07 02:35:43;;;;;;;6.93;2.67;;;8.90;99.90;;;;;;5095156;28;20207;-53
2022/10/07 02:38:13;;;;;;;9.00;2.57;;;8.90;99.90;;;;;;5095381;28;20633;-51
2022/10/07 02:40:43;;;;;;;7.70;2.47;;;8.90;99.90;;;;;;5095214;28;20296;-51
2022/10/07 02:43:19;;;;;;;6.90;2.80;;;8.90;99.90;;;;;;5095416;28;20296;-55
2022/10/07 02:45:51;;;;;;;11.00;2.70;;;8.80;99.90;;;;;;5094973;28;20221;-53
2022/10/07 02:48:23;;;;;;;6.10;2.80;;;8.80;99.90;;;;;;5094631;28;20224;-55
2022/10/07 02:50:55;;;;;;;9.37;2.77;;;8.80;99.90;;;;;;5095064;28;20263;-53
2022/10/07 02:53:27;;;;;;;5.23;2.43;;;8.80;99.90;;;;;;5095273;28;20297;-50
2022/10/07 02:55:56;;;;;;;13.60;2.87;;;8.70;99.90;;;;;;5094745;28;20667;-51
2022/10/07 02:58:26;;;;;;;4.63;2.87;;;8.70;99.90;;;;;;5095161;28;20234;-50
2022/10/07 03:00:57;;;;;;;5.53;2.00;;;8.70;99.90;;;;;;5094868;28;20271;-51
2022/10/07 03:03:24;;;;;;;9.30;2.60;;;8.70;99.90;;;;;;5094916;28;20200;-47
2022/10/07 03:05:52;;;;;;;14.10;2.50;;;8.70;99.90;;;;;;5094764;28;20289;-49
2022/10/07 03:08:21;;;;;;;11.50;2.97;;;8.70;99.90;;;;;;5095138;28;20252;-48
2022/10/07 03:10:48;;;;;;;8.80;2.23;;;8.70;99.90;;;;;;5094758;28;20201;-48
2022/10/07 03:13:15;;;;;;;5.93;2.40;;;8.70;99.90;;;;;;5094601;28;20201;-53
2022/10/07 03:15:43;;;;;;;7.20;2.20;;;8.70;99.90;;;;;;5094924;28;20214;-52
2022/10/07 03:18:24;;;;;;;7.30;2.50;;;8.70;99.90;;;;;;5094475;28;20229;-52
2022/10/07 03:20:52;;;;;;;6.93;2.60;;;8.70;99.90;;;;;;5094399;28;20309;-50
2022/10/07 03:23:19;;;;;;;5.13;1.83;;;8.70;99.90;;;;;;5094464;28;20212;-51
2022/10/07 03:25:49;;;;;;;8.77;2.47;;;8.60;99.90;;;;;;5093963;28;20278;-49
2022/10/07 03:28:15;;;;;;;9.77;2.03;;;8.60;99.90;;;;;;5093567;28;20228;-52
2022/10/07 03:30:44;;;;;;;7.40;2.10;;;8.60;99.90;;;;;;5094409;28;20250;-49
2022/10/07 03:33:10;;;;;;;10.20;2.40;;;8.60;99.90;;;;;;5094411;28;20255;-49
2022/10/07 03:35:37;;;;;;;10.87;2.30;;;8.50;99.90;;;;;;5094163;28;20265;-53
2022/10/07 03:38:05;;;;;;;10.07;2.47;;;8.50;99.90;;;;;;5093776;28;20271;-55
2022/10/07 03:40:32;;;;;;;10.73;2.10;;;8.50;99.90;;;;;;5094344;28;20213;-54
2022/10/07 03:42:58;;;;;;;9.27;2.27;;;8.50;99.90;;;;;;5094210;28;20253;-51
2022/10/07 03:45:25;;;;;;;6.07;2.30;;;8.50;99.90;;;;;;5094197;28;20233;-51
2022/10/07 03:47:53;;;;;;;7.63;1.97;;;8.50;99.90;;;;;;5093755;28;20225;-52
2022/10/07 03:50:20;;;;;;;10.77;2.00;;;8.40;99.90;;;;;;5094112;28;20258;-50
2022/10/07 03:52:46;;;;;;;5.43;1.73;;;8.40;99.90;;;;;;5094045;28;20205;-49
2022/10/07 03:55:13;;;;;;;13.63;2.43;;;8.40;99.90;;;;;;5093856;28;20342;-47
2022/10/07 03:57:52;;;;;;;7.07;2.30;;;8.40;99.90;;;;;;5093565;28;20279;-48
2022/10/07 04:00:22;;;;;;;16.90;5.93;;;8.40;99.90;;;;;;5093978;28;20208;-55
2022/10/07 04:02:49;;;;;;;8.67;2.67;;;8.40;99.90;;;;;;5094347;28;20356;-55
2022/10/07 04:05:19;;;;;;;6.17;2.20;;;8.40;99.90;;;;;;5093794;28;20620;-54
2022/10/07 04:07:46;;;;;;;7.87;2.37;;;8.40;99.90;;;;;;5093334;28;20868;-48
2022/10/07 04:10:15;;;;;;;10.73;2.00;;;8.40;99.90;;;;;;5093654;28;20209;-53
2022/10/07 04:12:42;;;;;;;10.97;2.33;;;8.40;99.90;;;;;;5093571;28;20234;-52
2022/10/07 04:15:12;;;;;;;5.70;1.80;;;8.40;99.90;;;;;;5093560;28;20196;-54
2022/10/07 04:17:39;;;;;;;7.90;2.50;;;8.40;99.90;;;;;;5092832;28;20233;-54
2022/10/07 04:20:07;;;;;;;6.53;2.17;;;8.40;99.90;;;;;;5093568;28;20216;-51
2022/10/07 04:22:35;;;;;;;6.30;2.20;;;8.40;99.90;;;;;;5093215;28;20803;-56
2022/10/07 04:27:51;;;;;;;5.87;2.10;;;8.40;99.90;;;;;;5093202;28;20710;-57
2022/10/07 04:30:17;;;;;;;6.23;1.80;;;8.40;99.90;;;;;;5093079;28;20306;-58
2022/10/07 04:32:44;;;;;;;6.63;2.00;;;8.40;99.90;;;;;;5093278;28;20662;-58
2022/10/07 04:35:11;;;;;;;5.80;1.80;;;8.30;99.90;;;;;;5093217;28;20201;-58
2022/10/07 04:37:40;;;;;;;5.40;1.70;;;8.30;99.90;;;;;;5092773;28;20208;-58
2022/10/07 04:40:08;;;;;;;6.23;2.23;;;8.30;99.90;;;;;;5093200;28;20300;-58
2022/10/07 04:45:19;;;;;;;5.47;1.90;;;8.30;99.90;;;;;;5093072;28;20252;-58
2022/10/07 04:47:46;;;;;;;7.33;2.43;;;8.30;99.90;;;;;;5092508;28;20231;-57
2022/10/07 04:50:13;;;;;;;6.93;2.00;;;8.20;99.90;;;;;;5092805;28;20257;-64
2022/10/07 04:52:41;;;;;;;5.80;1.93;;;8.20;99.90;;;;;;5090614;28;20238;-59
2022/10/07 04:55:09;;;;;;;6.30;2.13;;;8.20;99.90;;;;;;5092198;28;20283;-58
2022/10/07 04:57:36;;;;;;;4.20;1.73;;;8.20;99.90;;;;;;5091660;28;20208;-58
2022/10/07 05:00:03;;;;;;;9.43;2.27;;;8.20;99.90;;;;;;5092783;28;20280;-58
2022/10/07 05:02:30;;;;;;;8.87;1.83;;;8.20;99.90;;;;;;5092231;28;20265;-58
2022/10/07 05:04:57;;;;;;;9.40;2.33;;;8.30;99.90;;;;;;5092298;28;20255;-58
2022/10/07 05:07:24;;;;;;;10.07;1.97;;;8.30;99.90;;;;;;5092116;28;20207;-58
2022/10/07 05:09:52;;;;;;;6.67;1.93;;;8.30;99.90;;;;;;5091701;28;20733;-58
2022/10/07 05:12:19;;;;;;;10.13;2.27;;;8.30;99.90;;;;;;5092538;28;20261;-58
2022/10/07 05:14:46;;;;;;;8.27;2.50;;;8.30;99.90;;;;;;5092067;28;20213;-59
2022/10/07 05:17:13;;;;;;;5.47;1.70;;;8.30;99.90;;;;;;5091941;28;20208;-58
2022/10/07 05:19:40;;;;;;;4.03;1.80;;;8.30;99.90;;;;;;5091677;28;20235;-61
2022/10/07 05:22:07;;;;;;;8.87;1.50;;;8.30;99.90;;;;;;5091741;28;20211;-61
2022/10/07 05:24:34;;;;;;;13.77;2.10;;;8.30;99.90;;;;;;5091423;28;20254;-61
2022/10/07 05:27:02;;;;;;;8.77;1.70;;;8.30;99.90;;;;;;5091682;28;20633;-62
2022/10/07 05:29:28;;;;;;;11.97;1.93;;;8.30;99.90;;;;;;5091934;28;20228;-61
2022/10/07 05:31:55;;;;;;;6.53;2.00;;;8.30;99.90;;;;;;5092500;28;20208;-62
2022/10/07 05:34:22;;;;;;;7.50;1.97;;;8.40;99.90;;;;;;5091940;28;20266;-61
2022/10/07 05:36:49;;;;;;;11.13;2.00;;;8.40;99.90;;;;;;5091463;28;20201;-62
2022/10/07 05:39:15;;;;;;;10.03;1.90;;;8.40;99.90;;;;;;5091842;28;20232;-62
2022/10/07 05:41:42;;;;;;;6.53;2.03;;;8.40;99.90;;;;;;5091941;28;20251;-64
2022/10/07 05:44:10;;;;;;;4.53;1.70;;;8.40;99.90;;;;;;5092343;28;20204;-63
2022/10/07 05:46:36;;;;;;;7.00;1.80;;;8.50;99.90;;;;;;5091311;28;20262;-66
2022/10/07 05:49:03;;;;;;;3.03;1.57;;;8.70;99.90;;;;;;5091961;28;20232;-66
2022/10/07 05:51:30;;;;;;;5.37;1.97;;;8.80;99.90;;;;;;5090716;28;20332;-61
2022/10/07 05:53:57;;;;;;;9.83;1.60;;;8.80;99.90;;;;;;5091897;28;20203;-61
2022/10/07 05:56:24;;;;;;;3.33;1.80;;;8.70;99.90;;;;;;5091033;28;20278;-60
2022/10/07 05:58:52;;;;;;;10.27;2.20;;;8.70;99.90;;;;;;5091844;28;20615;-61
2022/10/07 06:01:22;;;;;;;9.70;2.00;;;8.60;99.90;;;;;;5091439;28;20201;-60
2022/10/07 06:03:50;;;;;;;8.57;1.90;;;8.60;99.90;;;;;;5090227;28;20212;-61
2022/10/07 06:06:17;;;;;;;8.70;2.10;;;8.60;99.90;;;;;;5090990;28;20217;-61
2022/10/07 06:08:44;;;;;;;8.10;2.17;;;8.50;99.90;;;;;;5091247;28;20311;-60
2022/10/07 06:13:57;;;;;;;6.70;1.60;;;8.50;99.90;;;;;;5091502;28;20242;-61
2022/10/07 06:16:26;;;;;;;11.20;1.90;;;8.50;99.90;;;;;;5091466;28;20197;-62
2022/10/07 06:18:54;;;;;;;7.03;1.50;;;8.50;99.90;;;;;;5091745;28;20227;-62
2022/10/07 06:21:22;;;;;;;8.93;2.20;;;8.50;99.90;;;;;;5091403;28;20680;-60
2022/10/07 06:23:50;;;;;;;6.70;2.00;;;8.50;99.90;;;;;;5091134;28;20209;-63
2022/10/07 06:26:17;;;;;;;5.50;1.90;;;8.50;99.90;;;;;;5090954;28;20268;-63
2022/10/07 06:28:44;;;;;;;9.77;2.10;;;8.50;99.90;;;;;;5090898;28;20224;-64
2022/10/07 06:31:12;;;;;;;3.83;1.87;;;8.50;99.90;;;;;;5090901;28;20685;-64
2022/10/07 06:33:40;;;;;;;5.87;1.80;;;8.50;99.90;;;;;;5091350;28;20255;-63
2022/10/07 06:36:11;;;;;;;7.57;1.63;;;8.60;99.90;;;;;;5091135;28;20201;-63
2022/10/07 06:38:38;;;;;;;9.87;2.13;;;8.60;99.90;;;;;;5090830;28;20229;-63
2022/10/07 06:41:06;;;;;;;10.43;2.40;;;8.70;99.90;;;;;;5091143;28;20205;-62
2022/10/07 06:43:33;;;;;;;6.57;1.90;;;8.70;99.90;;;;;;5091083;28;20890;-62
2022/10/07 06:46:01;;;;;;;5.90;1.77;;;8.70;99.90;;;;;;5090703;28;20234;-59
2022/10/07 06:48:30;;;;;;;8.47;1.70;;;8.80;99.90;;;;;;5091148;28;20233;-59
2022/10/07 06:51:02;;;;;;;4.50;1.77;;;8.90;99.90;;;;;;5090691;28;20205;-56
2022/10/07 06:53:29;;;;;;;7.17;1.93;;;8.90;99.90;;;;;;5091054;28;20206;-61
2022/10/07 06:55:56;;;;;;;12.07;2.73;;;9.00;99.90;;;;;;5090101;28;20270;-60
2022/10/07 06:58:24;;;;;;;8.83;2.13;;;9.00;99.90;;;;;;5090627;28;20268;-60
2022/10/07 07:00:52;;;;;;;8.30;1.83;;;9.10;99.90;;;;;;5090387;28;20253;-60
2022/10/07 07:03:20;;;;;;;17.10;2.27;;;9.20;99.90;;;;;;5091362;28;20219;-60
2022/10/07 07:05:47;;;;;;;7.30;2.53;;;9.20;99.90;;;;;;5094246;28;20320;-63
2022/10/07 07:08:16;;;;;;;9.83;1.90;;;9.30;99.90;;;;;;5094025;28;20230;-62
2022/10/07 07:10:44;;;;;;;11.53;2.10;;;9.40;99.90;;;;;;5094052;28;20261;-61
2022/10/07 07:13:11;;;;;;;6.43;2.60;;;9.50;99.90;;;;;;5093765;28;20220;-60
2022/10/07 07:15:39;;;;;;;5.87;2.03;;;9.60;99.90;;;;;;5084404;28;20580;-60
2022/10/07 07:18:07;;;;;;;7.40;2.07;;;9.70;99.90;;;;;;5092755;28;20269;-61
2022/10/07 07:20:36;;;;;;;5.43;2.07;;;9.80;99.90;;;;;;5094093;28;20204;-61
2022/10/07 07:23:04;;;;;;;3.80;1.70;;;9.90;99.90;;;;;;5093936;28;20277;-60
2022/10/07 07:25:35;;;;;;;5.83;2.07;;;9.90;99.90;;;;;;5094020;28;20253;-62
2022/10/07 07:28:02;;;;;;;5.70;2.00;;;10.10;99.90;;;;;;5093042;28;20228;-62
2022/10/07 07:30:29;;;;;;;4.90;1.53;;;10.10;99.90;;;;;;5093858;28;20650;-62
2022/10/07 07:32:56;;;;;;;5.40;1.93;;;10.30;99.90;;;;;;5093775;28;20204;-59
2022/10/07 07:35:22;;;;;;;7.40;2.30;;;10.30;99.90;;;;;;5093426;28;20389;-58
2022/10/07 07:37:49;;;;;;;6.97;2.00;;;10.50;99.90;;;;;;5093096;28;20254;-57
2022/10/07 07:40:16;;;;;;;6.63;2.03;;;10.60;99.90;;;;;;5093268;28;20270;-59
2022/10/07 07:42:45;;;;;;;6.70;2.13;;;10.70;99.90;;;;;;5093956;28;20212;-60
2022/10/07 07:45:12;;;;;;;9.00;2.00;;;10.80;98.90;;;;;;5093278;28;20204;-61
2022/10/07 07:47:39;;;;;;;5.50;1.67;;;10.90;98.30;;;;;;5092517;28;20729;-59
2022/10/07 07:50:07;;;;;;;13.53;1.87;;;11.00;96.20;;;;;;5091414;28;20212;-56
2022/10/07 07:52:34;;;;;;;9.50;1.90;;;11.00;94.70;;;;;;5093438;28;20212;-58
2022/10/07 07:55:02;;;;;;;6.17;1.97;;;11.20;92.50;;;;;;5093442;28;20259;-60
2022/10/07 07:57:29;;;;;;;6.73;1.93;;;11.30;87.70;;;;;;5092350;28;20205;-57
2022/10/07 07:59:57;;;;;;;7.43;2.10;;;11.40;86.70;;;;;;5093282;28;20208;-58
2022/10/07 08:02:24;;;;;;;7.93;1.80;;;11.50;88.80;;;;;;5092642;28;20214;-57
2022/10/07 08:04:51;;;;;;;9.53;2.20;;;11.60;87.60;;;;;;5089823;28;20205;-59
2022/10/07 08:07:17;;;;;;;5.97;1.90;;;11.70;89.40;;;;;;5091666;28;20222;-60
2022/10/07 08:09:44;;;;;;;8.77;2.23;;;11.80;83.70;;;;;;5093037;28;20283;-59
2022/10/07 08:12:13;;;;;;;7.00;2.17;;;11.90;76.50;;;;;;5092867;28;20235;-59
2022/10/07 08:14:40;;;;;;;7.40;2.53;;;12.00;82.40;;;;;;5091848;28;20232;-60
2022/10/07 08:17:08;;;;;;;6.73;1.90;;;12.10;63.70;;;;;;5092083;28;20203;-61
2022/10/07 08:19:34;;;;;;;6.60;1.77;;;12.20;56.80;;;;;;5091981;28;20237;-59
2022/10/07 08:22:01;;;;;;;10.80;2.13;;;12.20;45.00;;;;;;5093050;28;20211;-61
2022/10/07 08:24:28;;;;;;;16.07;2.20;;;12.30;52.00;;;;;;5092304;28;20211;-60
2022/10/07 08:26:55;;;;;;;8.33;1.90;;;12.40;49.20;;;;;;5092192;28;20644;-57
2022/10/07 08:29:21;;;;;;;9.20;2.03;;;12.50;40.10;;;;;;5092137;28;20234;-52
2022/10/07 08:31:48;;;;;;;8.23;1.87;;;12.60;52.50;;;;;;5092642;28;20209;-56
2022/10/07 08:34:16;;;;;;;9.23;2.40;;;12.70;30.30;;;;;;5092383;28;20214;-57
2022/10/07 08:36:46;;;;;;;6.77;2.00;;;12.80;30.40;;;;;;5091476;28;20202;-57
2022/10/07 08:39:13;;;;;;;8.20;1.87;;;12.90;38.00;;;;;;5092281;28;20245;-56
2022/10/07 08:41:50;;;;;;;5.67;1.70;;;13.00;28.80;;;;;;5092005;28;20293;-58
2022/10/07 08:44:23;;;;;;;6.70;2.23;;;13.10;31.60;;;;;;5092287;28;20218;-59
2022/10/07 08:46:56;;;;;;;14.40;2.20;;;13.30;23.80;;;;;;5091520;28;20243;-61
2022/10/07 08:49:32;;;;;;;9.43;1.90;;;13.30;13.10;;;;;;5092123;28;20230;-60
2022/10/07 08:52:03;;;;;;;6.70;1.97;;;13.50;21.30;;;;;;5091883;28;20677;-64
2022/10/07 08:54:32;;;;;;;9.47;2.23;;;13.60;15.60;;;;;;5092214;28;20215;-62
2022/10/07 08:57:06;;;;;;;6.20;1.77;;;13.80;7.20;;;;;;5091316;28;20198;-63
2022/10/07 08:59:35;;;;;;;9.33;1.87;;;14.00;1.00;;;;;;5092334;28;20223;-64
2022/10/07 09:02:15;;;;;;;8.87;2.23;;;14.20;1.00;;;;;;5092136;28;20212;-57
2022/10/07 09:04:53;;;;;;;10.63;2.27;;;14.30;99.90;;;;;;5091929;28;20289;-57
2022/10/07 09:07:31;;;;;;;9.93;1.80;;;14.40;1.00;;;;;;5091273;28;20224;-60
2022/10/07 09:10:01;;;;;;;8.70;2.20;;;14.40;1.00;;;;;;5091656;28;20211;-59
2022/10/07 09:12:43;;;;;;;8.30;2.17;;;14.40;1.00;;;;;;5092163;28;20207;-59
2022/10/07 09:15:18;;;;;;;8.93;2.17;;;14.40;99.90;;;;;;5091516;28;20337;-58
2022/10/07 09:17:54;;;;;;;8.50;2.03;;;14.50;99.90;;;;;;5091105;28;20266;-59
2022/10/07 09:20:41;;;;;;;9.60;2.00;;;14.60;1.00;;;;;;5091475;28;20218;-57
2022/10/07 09:23:14;;;;;;;7.37;1.63;;;14.70;99.90;;;;;;5091942;28;20709;-57
2022/10/07 09:25:41;;;;;;;6.10;1.80;;;14.80;99.90;;;;;;5090316;28;20675;-57
2022/10/07 09:28:14;;;;;;;8.77;2.20;;;14.90;99.90;;;;;;5090752;28;20232;-57
2022/10/07 09:30:42;;;;;;;5.37;1.97;;;14.90;99.90;;;;;;5091365;28;20208;-59
2022/10/07 09:33:14;;;;;;;9.03;2.07;;;14.90;99.90;;;;;;5091808;28;20281;-59
2022/10/07 09:35:51;;;;;;;9.80;1.80;;;14.80;99.90;;;;;;5091399;28;20212;-60
2022/10/07 09:38:29;;;;;;;7.20;1.93;;;14.90;99.90;;;;;;5087317;28;20254;-57
2022/10/07 09:41:15;;;;;;;8.33;1.80;;;15.10;99.90;;;;;;5090901;28;20257;-59
2022/10/07 09:43:55;;;;;;;7.53;1.73;;;15.10;1.00;;;;;;5089487;28;20207;-60
2022/10/07 09:46:31;;;;;;;6.80;1.77;;;15.10;99.90;;;;;;5090799;28;20639;-61
2022/10/07 09:49:03;;;;;;;7.23;2.10;;;15.30;24.60;;;;;;5090696;28;20594;-57
2022/10/07 09:51:32;;;;;;;8.10;1.70;;;15.50;15.90;;;;;;5091049;28;20200;-57
2022/10/07 09:54:01;;;;;;;5.77;1.60;;;15.70;99.90;;;;;;5090616;28;20200;-57
2022/10/07 09:56:40;;;;;;;7.67;1.70;;;15.70;99.90;;;;;;5091085;28;20690;-61
2022/10/07 09:59:19;;;;;;;5.03;1.40;;;15.80;1.00;;;;;;5089591;28;20220;-59
2022/10/07 10:01:50;;;;;;;8.17;1.90;;;15.80;99.90;;;;;;5091115;28;20207;-59
2022/10/07 10:04:20;;;;;;;7.40;1.77;;;15.90;1.00;;;;;;5090686;28;20208;-63
2022/10/07 10:06:50;;;;;;;7.33;1.77;;;16.00;99.90;;;;;;5090248;28;20220;-61
2022/10/07 10:09:21;;;;;;;8.90;1.67;;;16.00;1.00;;;;;;5091268;28;20588;-61
2022/10/07 10:12:05;;;;;;;9.73;1.70;;;16.00;99.90;;;;;;5090554;28;20212;-57
2022/10/07 10:14:42;;;;;;;6.77;1.53;;;16.10;1.00;;;;;;5091250;28;20771;-57
2022/10/07 10:17:21;;;;;;;5.17;1.60;;;16.30;1.00;;;;;;5090503;28;20298;-58
2022/10/07 10:19:48;;;;;;;9.87;2.10;;;16.40;1.00;;;;;;5091073;28;20204;-57
2022/10/07 10:22:25;;;;;;;5.70;1.30;;;16.50;99.90;;;;;;5090501;28;20215;-57
2022/10/07 10:27:46;;;;;;;10.13;2.37;;;16.60;1.00;;;;;;5089757;28;20368;-57
2022/10/07 10:30:19;;;;;;;6.03;1.57;;;16.50;99.90;;;;;;5090055;28;20212;-56
2022/10/07 10:33:23;;;;;;;11.67;1.90;;;16.60;99.90;;;;;;5090651;28;20215;-56
2022/10/07 10:35:56;;;;;;;9.83;1.90;;;16.60;76.80;;;;;;5090491;28;20558;-60
2022/10/07 10:38:45;;;;;;;10.23;1.80;;;16.60;99.90;;;;;;5093216;28;20228;-61
2022/10/07 10:41:22;;;;;;;7.63;1.90;;;16.80;99.90;;;;;;5094848;28;20318;-58
2022/10/07 10:44:03;;;;;;;9.63;1.77;;;16.70;1.00;;;;;;5095370;28;20215;-59
2022/10/07 10:46:43;;;;;;;11.03;1.70;;;16.70;99.90;;;;;;5097247;28;20204;-60
2022/10/07 10:49:21;;;;;;;8.23;1.60;;;16.80;99.90;;;;;;5095595;28;20226;-57
2022/10/07 10:52:12;;;;;;;8.57;1.83;;;16.90;1.00;;;;;;5094241;28;20235;-62
2022/10/07 10:54:50;;;;;;;5.90;1.70;;;16.90;1.00;;;;;;5081458;28;20827;-62
2022/10/07 10:57:28;;;;;;;5.70;1.30;;;16.90;1.00;;;;;;5093805;28;20618;-64
2022/10/07 11:00:04;;;;;;;7.00;1.80;;;16.80;1.00;;;;;;5094436;28;20204;-58
2022/10/07 11:02:47;;;;;;;7.70;1.40;;;16.90;1.00;;;;;;5094381;28;20208;-60
2022/10/07 11:05:16;;;;;;;9.03;1.80;;;16.80;1.00;;;;;;5094518;28;20208;-60
2022/10/07 11:07:47;;;;;;;6.67;1.43;;;16.90;1.00;;;;;;5093248;28;20282;-58
2022/10/07 11:10:21;;;;;;;7.33;1.47;;;16.80;1.00;;;;;;5094008;28;20217;-59
2022/10/07 11:12:53;;;;;;;8.07;1.57;;;16.70;1.00;;;;;;5094177;28;20295;-59
2022/10/07 11:15:25;;;;;;;4.23;1.20;;;16.80;8.20;;;;;;5094389;28;20302;-59
2022/10/07 11:17:54;;;;;;;7.93;1.70;;;16.90;1.00;;;;;;5093463;28;20216;-57
2022/10/07 11:20:27;;;;;;;9.97;1.73;;;16.90;1.00;;;;;;5093943;28;20219;-57
2022/10/07 11:23:00;;;;;;;5.13;1.60;;;16.80;99.90;;;;;;5094158;28;20235;-58
2022/10/07 11:25:34;;;;;;;6.53;1.10;;;17.00;1.00;;;;;;5093578;28;20216;-55
2022/10/07 11:28:14;;;;;;;4.27;1.27;;;17.00;1.00;;;;;;5093684;28;20227;-55
2022/10/07 11:30:48;;;;;;;8.63;1.70;;;17.00;99.90;;;;;;5093496;28;20245;-58
2022/10/07 11:33:23;;;;;;;8.37;1.70;;;17.00;99.90;;;;;;5093879;28;20214;-60
2022/10/07 11:35:54;;;;;;;7.03;1.50;;;17.10;1.00;;;;;;5093465;28;20200;-59
2022/10/07 11:38:24;;;;;;;10.27;1.90;;;16.90;99.90;;;;;;5093218;28;20232;-61
2022/10/07 11:40:55;;;;;;;5.63;1.80;;;16.90;99.90;;;;;;5091324;28;20738;-59
2022/10/07 11:43:27;;;;;;;9.50;1.77;;;17.10;99.90;;;;;;5093429;28;20299;-60
2022/10/07 11:45:59;;;;;;;4.60;1.30;;;17.10;99.90;;;;;;5093326;28;20261;-59
2022/10/07 11:48:30;;;;;;;7.83;2.13;;;17.20;1.00;;;;;;5092653;28;20236;-59
2022/10/07 11:51:02;;;;;;;9.27;2.03;;;17.10;99.90;;;;;;5092674;28;20200;-63
2022/10/07 11:53:33;;;;;;;6.47;1.63;;;17.10;99.90;;;;;;5091510;28;20213;-64
2022/10/07 11:56:04;;;;;;;8.47;1.43;;;16.90;1.00;;;;;;5093223;28;20208;-65
2022/10/07 11:58:35;;;;;;;8.03;1.83;;;16.90;99.90;;;;;;5093270;28;20282;-64
2022/10/07 12:01:31;;;;;;;8.37;1.70;;;16.90;99.90;;;;;;5093677;28;20208;-66
2022/10/07 12:04:34;;;;;;;11.97;2.10;;;17.00;1.00;;;;;;5092816;28;20210;-66
2022/10/07 12:07:39;;;;;;;8.13;1.53;;;17.10;1.00;;;;;;5093323;28;20755;-64
2022/10/07 12:10:34;;;;;;;10.43;1.83;;;17.00;99.90;;;;;;5093470;28;20219;-63
2022/10/07 12:13:35;;;;;;;10.80;1.60;;;17.10;1.00;;;;;;5046150;28;20208;-63
2022/10/07 12:16:41;;;;;;;7.33;1.47;;;17.20;99.90;;;;;;5097271;28;20204;-63
2022/10/07 12:19:16;;;;;;;13.90;1.97;;;17.20;99.90;;;;;;5098419;28;20775;-63
2022/10/07 12:22:13;;;;;;;6.73;1.70;;;17.30;99.90;;;;;;5094152;28;20208;-63
2022/10/07 12:24:44;;;;;;;7.40;1.53;;;17.40;1.00;;;;;;5095123;28;20208;-62
2022/10/07 12:27:14;;;;;;;5.77;1.80;;;17.50;99.90;;;;;;5092836;28;20228;-59
2022/10/07 12:29:52;;;;;;;6.40;1.73;;;17.50;99.90;;;;;;5092600;28;20240;-57
2022/10/07 12:32:45;;;;;;;9.33;2.27;;;17.40;99.90;;;;;;5092227;28;20299;-57
2022/10/07 12:35:51;;;;;;;5.47;1.80;;;17.30;99.90;;;;;;5092727;28;20212;-57
2022/10/07 12:38:23;;;;;;;11.07;2.10;;;17.30;99.90;;;;;;5085186;28;20228;-58
2022/10/07 12:41:21;;;;;;;7.00;2.20;;;17.20;99.90;;;;;;5092476;28;20781;-57
2022/10/07 12:43:55;;;;;;;10.63;1.80;;;17.30;99.90;;;;;;5076300;28;20212;-58
2022/10/07 12:46:23;;;;;;;10.10;2.43;;;17.40;1.00;;;;;;5089510;28;20234;-58
2022/10/07 12:48:58;;;;;;;11.30;2.30;;;17.50;99.90;;;;;;5092123;28;20323;-59
2022/10/07 12:51:28;;;;;;;10.27;2.30;;;17.40;99.90;;;;;;5092121;28;20261;-58
2022/10/07 12:53:58;;;;;;;11.00;2.47;;;17.20;99.90;;;;;;5092219;28;20223;-54
2022/10/07 12:56:29;;;;;;;12.37;2.57;;;17.30;99.90;;;;;;5092425;28;20671;-58
2022/10/07 13:02:25;;;;;;;5.40;1.93;;;17.50;1.00;;;;;;5078510;28;20552;-56
2022/10/07 13:05:15;;;;;;;8.97;1.90;;;17.50;99.90;;;;;;5091548;28;20204;-57
2022/10/07 13:08:35;;;;;;;9.27;2.17;;;17.50;1.00;;;;;;5091201;28;20232;-58
2022/10/07 13:11:39;;;;;;;10.67;2.50;;;17.60;1.00;;;;;;5091620;28;20242;-57
2022/10/07 13:14:12;;;;;;;12.27;2.07;;;17.40;99.90;;;;;;5078781;28;20312;-54
2022/10/07 13:16:43;;;;;;;8.93;2.50;;;17.50;1.00;;;;;;5091206;28;20295;-59
2022/10/07 13:19:18;;;;;;;10.33;1.90;;;17.60;99.90;;;;;;5091938;28;20641;-55
2022/10/07 13:21:50;;;;;;;8.27;2.03;;;17.50;99.90;;;;;;5091319;28;20212;-56
2022/10/07 13:24:24;;;;;;;10.50;2.20;;;17.60;1.00;;;;;;5092040;28;20223;-59
2022/10/07 13:26:52;;;;;;;8.23;2.20;;;17.50;99.90;;;;;;5091143;28;20239;-61
2022/10/07 13:29:23;;;;;;;9.60;1.93;;;17.60;1.00;;;;;;5091799;28;20606;-61
2022/10/07 13:32:04;;;;;;;13.33;2.63;;;17.60;99.90;;;;;;5091530;28;20701;-61